sensor_id;sensor_type;location;lat;lon;timestamp;P1;durP1;ratioP1;P2;durP2;ratioP2
75864;SDS011;64510;46.704;38.274;2023-05-07T00:00:04;2.45;;;1.20;;
75864;SDS011;64510;46.704;38.274;2023-05-07T00:02:34;1.55;;;1.08;;
75864;SDS011;64510;46.704;38.274;2023-05-07T00:05:00;3.05;;;1.33;;
75864;SDS011;64510;46.704;38.274;2023-05-07T00:07:27;3.28;;;1.50;;
75864;SDS011;64510;46.704;38.274;2023-05-07T00:09:53;2.17;;;1.10;;
75864;SDS011;64510;46.704;38.274;2023-05-07T00:12:19;5.50;;;1.50;;
75864;SDS011;64510;46.704;38.274;2023-05-07T00:14:45;2.20;;;1.50;;
75864;SDS011;64510;46.704;38.274;2023-05-07T00:17:11;1.60;;;1.50;;
75864;SDS011;64510;46.704;38.274;2023-05-07T00:19:37;1.20;;;1.00;;
75864;SDS011;64510;46.704;38.274;2023-05-07T00:22:03;1.92;;;1.27;;
75864;SDS011;64510;46.704;38.274;2023-05-07T00:24:29;3.70;;;1.13;;
75864;SDS011;64510;46.704;38.274;2023-05-07T00:26:55;1.30;;;1.08;;
75864;SDS011;64510;46.704;38.274;2023-05-07T00:29:23;1.25;;;1.15;;
75864;SDS011;64510;46.704;38.274;2023-05-07T00:31:49;1.55;;;1.13;;
75864;SDS011;64510;46.704;38.274;2023-05-07T00:34:16;3.35;;;1.40;;
75864;SDS011;64510;46.704;38.274;2023-05-07T00:36:42;1.65;;;1.13;;
75864;SDS011;64510;46.704;38.274;2023-05-07T00:39:07;1.77;;;1.10;;
75864;SDS011;64510;46.704;38.274;2023-05-07T00:41:34;2.25;;;1.40;;
75864;SDS011;64510;46.704;38.274;2023-05-07T00:44:00;2.55;;;1.40;;
75864;SDS011;64510;46.704;38.274;2023-05-07T00:46:26;1.35;;;1.10;;
75864;SDS011;64510;46.704;38.274;2023-05-07T00:48:53;2.13;;;1.05;;
75864;SDS011;64510;46.704;38.274;2023-05-07T00:51:19;1.95;;;1.15;;
75864;SDS011;64510;46.704;38.274;2023-05-07T00:53:45;1.40;;;1.10;;
75864;SDS011;64510;46.704;38.274;2023-05-07T00:56:12;1.60;;;1.40;;
75864;SDS011;64510;46.704;38.274;2023-05-07T00:58:38;3.92;;;1.40;;
75864;SDS011;64510;46.704;38.274;2023-05-07T01:01:04;1.67;;;0.90;;
75864;SDS011;64510;46.704;38.274;2023-05-07T01:03:30;3.78;;;1.30;;
75864;SDS011;64510;46.704;38.274;2023-05-07T01:05:56;1.23;;;0.88;;
75864;SDS011;64510;46.704;38.274;2023-05-07T01:08:25;7.38;;;2.08;;
75864;SDS011;64510;46.704;38.274;2023-05-07T01:10:53;1.13;;;1.02;;
75864;SDS011;64510;46.704;38.274;2023-05-07T01:13:21;1.65;;;1.10;;
75864;SDS011;64510;46.704;38.274;2023-05-07T01:15:48;3.08;;;1.33;;
75864;SDS011;64510;46.704;38.274;2023-05-07T01:18:15;1.60;;;1.50;;
75864;SDS011;64510;46.704;38.274;2023-05-07T01:20:42;2.15;;;1.42;;
75864;SDS011;64510;46.704;38.274;2023-05-07T01:23:08;2.72;;;1.40;;
75864;SDS011;64510;46.704;38.274;2023-05-07T01:25:36;4.00;;;1.48;;
75864;SDS011;64510;46.704;38.274;2023-05-07T01:28:02;1.65;;;1.05;;
75864;SDS011;64510;46.704;38.274;2023-05-07T01:30:31;10.55;;;2.88;;
75864;SDS011;64510;46.704;38.274;2023-05-07T01:33:06;1.42;;;1.30;;
75864;SDS011;64510;46.704;38.274;2023-05-07T01:35:39;1.38;;;1.27;;
75864;SDS011;64510;46.704;38.274;2023-05-07T01:38:07;3.17;;;2.00;;
75864;SDS011;64510;46.704;38.274;2023-05-07T01:40:34;1.85;;;1.45;;
75864;SDS011;64510;46.704;38.274;2023-05-07T01:43:01;2.65;;;1.27;;
75864;SDS011;64510;46.704;38.274;2023-05-07T01:45:29;1.90;;;1.23;;
75864;SDS011;64510;46.704;38.274;2023-05-07T01:47:57;4.38;;;1.40;;
75864;SDS011;64510;46.704;38.274;2023-05-07T01:50:24;1.67;;;1.48;;
75864;SDS011;64510;46.704;38.274;2023-05-07T01:52:51;1.20;;;1.10;;
75864;SDS011;64510;46.704;38.274;2023-05-07T01:55:17;1.70;;;1.60;;
75864;SDS011;64510;46.704;38.274;2023-05-07T01:57:43;3.75;;;1.38;;
75864;SDS011;64510;46.704;38.274;2023-05-07T02:00:10;2.40;;;1.75;;
75864;SDS011;64510;46.704;38.274;2023-05-07T02:02:42;3.45;;;1.90;;
75864;SDS011;64510;46.704;38.274;2023-05-07T02:05:17;1.70;;;1.60;;
75864;SDS011;64510;46.704;38.274;2023-05-07T02:07:47;2.72;;;1.95;;
75864;SDS011;64510;46.704;38.274;2023-05-07T02:10:15;4.15;;;2.25;;
75864;SDS011;64510;46.704;38.274;2023-05-07T02:12:41;2.65;;;1.73;;
75864;SDS011;64510;46.704;38.274;2023-05-07T02:15:08;3.38;;;2.00;;
75864;SDS011;64510;46.704;38.274;2023-05-07T02:17:34;4.20;;;2.00;;
75864;SDS011;64510;46.704;38.274;2023-05-07T02:20:02;4.07;;;1.85;;
75864;SDS011;64510;46.704;38.274;2023-05-07T02:22:29;5.78;;;2.60;;
75864;SDS011;64510;46.704;38.274;2023-05-07T02:24:55;2.47;;;1.80;;
75864;SDS011;64510;46.704;38.274;2023-05-07T02:27:21;1.60;;;1.10;;
75864;SDS011;64510;46.704;38.274;2023-05-07T02:29:47;3.55;;;1.95;;
75864;SDS011;64510;46.704;38.274;2023-05-07T02:32:13;2.42;;;1.52;;
75864;SDS011;64510;46.704;38.274;2023-05-07T02:34:39;2.90;;;2.15;;
75864;SDS011;64510;46.704;38.274;2023-05-07T02:37:05;2.58;;;1.85;;
75864;SDS011;64510;46.704;38.274;2023-05-07T02:39:31;3.55;;;2.25;;
75864;SDS011;64510;46.704;38.274;2023-05-07T02:41:57;2.30;;;1.95;;
75864;SDS011;64510;46.704;38.274;2023-05-07T02:44:23;2.35;;;1.63;;
75864;SDS011;64510;46.704;38.274;2023-05-07T02:46:50;2.30;;;2.05;;
75864;SDS011;64510;46.704;38.274;2023-05-07T02:49:16;2.22;;;1.77;;
75864;SDS011;64510;46.704;38.274;2023-05-07T02:51:43;5.03;;;2.53;;
75864;SDS011;64510;46.704;38.274;2023-05-07T02:54:15;4.47;;;2.50;;
75864;SDS011;64510;46.704;38.274;2023-05-07T02:56:43;4.75;;;2.08;;
75864;SDS011;64510;46.704;38.274;2023-05-07T02:59:08;2.83;;;2.20;;
75864;SDS011;64510;46.704;38.274;2023-05-07T03:01:39;8.15;;;2.42;;
75864;SDS011;64510;46.704;38.274;2023-05-07T03:04:06;3.85;;;2.33;;
75864;SDS011;64510;46.704;38.274;2023-05-07T03:06:32;5.63;;;3.22;;
75864;SDS011;64510;46.704;38.274;2023-05-07T03:08:58;3.47;;;2.53;;
75864;SDS011;64510;46.704;38.274;2023-05-07T03:11:24;4.57;;;2.40;;
75864;SDS011;64510;46.704;38.274;2023-05-07T03:13:50;5.38;;;2.50;;
75864;SDS011;64510;46.704;38.274;2023-05-07T03:16:18;5.65;;;2.13;;
75864;SDS011;64510;46.704;38.274;2023-05-07T03:18:45;3.58;;;2.10;;
75864;SDS011;64510;46.704;38.274;2023-05-07T03:21:10;3.28;;;2.78;;
75864;SDS011;64510;46.704;38.274;2023-05-07T03:23:36;4.22;;;2.35;;
75864;SDS011;64510;46.704;38.274;2023-05-07T03:26:02;5.15;;;3.17;;
75864;SDS011;64510;46.704;38.274;2023-05-07T03:28:29;4.68;;;1.83;;
75864;SDS011;64510;46.704;38.274;2023-05-07T03:30:59;3.17;;;2.05;;
75864;SDS011;64510;46.704;38.274;2023-05-07T03:33:25;2.25;;;2.15;;
75864;SDS011;64510;46.704;38.274;2023-05-07T03:35:53;5.07;;;2.42;;
75864;SDS011;64510;46.704;38.274;2023-05-07T03:38:22;3.03;;;2.20;;
75864;SDS011;64510;46.704;38.274;2023-05-07T03:40:48;2.13;;;1.95;;
75864;SDS011;64510;46.704;38.274;2023-05-07T03:43:15;5.10;;;2.55;;
75864;SDS011;64510;46.704;38.274;2023-05-07T03:45:46;2.38;;;2.05;;
75864;SDS011;64510;46.704;38.274;2023-05-07T03:48:16;5.10;;;2.40;;
75864;SDS011;64510;46.704;38.274;2023-05-07T03:50:42;3.35;;;2.28;;
75864;SDS011;64510;46.704;38.274;2023-05-07T03:53:09;6.38;;;2.05;;
75864;SDS011;64510;46.704;38.274;2023-05-07T03:55:38;2.65;;;2.00;;
75864;SDS011;64510;46.704;38.274;2023-05-07T03:58:04;6.15;;;2.22;;
75864;SDS011;64510;46.704;38.274;2023-05-07T04:00:30;5.32;;;2.58;;
75864;SDS011;64510;46.704;38.274;2023-05-07T04:02:59;3.85;;;2.10;;
75864;SDS011;64510;46.704;38.274;2023-05-07T04:05:28;2.47;;;1.70;;
75864;SDS011;64510;46.704;38.274;2023-05-07T04:07:58;5.32;;;2.92;;
75864;SDS011;64510;46.704;38.274;2023-05-07T04:10:31;4.82;;;2.10;;
75864;SDS011;64510;46.704;38.274;2023-05-07T04:13:01;2.42;;;2.22;;
75864;SDS011;64510;46.704;38.274;2023-05-07T04:15:27;3.75;;;2.08;;
75864;SDS011;64510;46.704;38.274;2023-05-07T04:17:54;5.55;;;2.50;;
75864;SDS011;64510;46.704;38.274;2023-05-07T04:20:21;6.28;;;2.33;;
75864;SDS011;64510;46.704;38.274;2023-05-07T04:22:54;3.85;;;2.53;;
75864;SDS011;64510;46.704;38.274;2023-05-07T04:25:21;3.08;;;2.50;;
75864;SDS011;64510;46.704;38.274;2023-05-07T04:27:48;2.38;;;2.17;;
75864;SDS011;64510;46.704;38.274;2023-05-07T04:30:15;2.90;;;2.67;;
75864;SDS011;64510;46.704;38.274;2023-05-07T04:32:42;2.60;;;2.22;;
75864;SDS011;64510;46.704;38.274;2023-05-07T04:35:10;5.78;;;3.08;;
75864;SDS011;64510;46.704;38.274;2023-05-07T04:37:37;2.65;;;2.33;;
75864;SDS011;64510;46.704;38.274;2023-05-07T04:40:04;2.67;;;2.40;;
75864;SDS011;64510;46.704;38.274;2023-05-07T04:42:30;5.28;;;2.17;;
75864;SDS011;64510;46.704;38.274;2023-05-07T04:44:58;4.80;;;2.35;;
75864;SDS011;64510;46.704;38.274;2023-05-07T04:47:24;4.22;;;2.05;;
75864;SDS011;64510;46.704;38.274;2023-05-07T04:49:50;3.10;;;2.38;;
75864;SDS011;64510;46.704;38.274;2023-05-07T04:52:16;2.78;;;2.47;;
75864;SDS011;64510;46.704;38.274;2023-05-07T04:54:42;4.38;;;2.60;;
75864;SDS011;64510;46.704;38.274;2023-05-07T04:57:08;4.03;;;2.42;;
75864;SDS011;64510;46.704;38.274;2023-05-07T04:59:34;6.47;;;2.72;;
75864;SDS011;64510;46.704;38.274;2023-05-07T05:02:00;4.82;;;2.22;;
75864;SDS011;64510;46.704;38.274;2023-05-07T05:04:27;4.60;;;2.83;;
75864;SDS011;64510;46.704;38.274;2023-05-07T05:06:53;3.92;;;2.90;;
75864;SDS011;64510;46.704;38.274;2023-05-07T05:09:19;3.50;;;2.58;;
75864;SDS011;64510;46.704;38.274;2023-05-07T05:11:45;3.83;;;2.35;;
75864;SDS011;64510;46.704;38.274;2023-05-07T05:14:11;2.95;;;2.20;;
75864;SDS011;64510;46.704;38.274;2023-05-07T05:16:37;4.60;;;2.85;;
75864;SDS011;64510;46.704;38.274;2023-05-07T05:19:04;3.90;;;2.60;;
75864;SDS011;64510;46.704;38.274;2023-05-07T05:21:32;3.88;;;3.30;;
75864;SDS011;64510;46.704;38.274;2023-05-07T05:24:04;5.90;;;3.38;;
75864;SDS011;64510;46.704;38.274;2023-05-07T05:26:30;5.63;;;3.15;;
75864;SDS011;64510;46.704;38.274;2023-05-07T05:28:56;5.40;;;3.60;;
75864;SDS011;64510;46.704;38.274;2023-05-07T05:31:24;3.45;;;2.92;;
75864;SDS011;64510;46.704;38.274;2023-05-07T05:33:50;3.95;;;2.85;;
75864;SDS011;64510;46.704;38.274;2023-05-07T05:36:16;8.55;;;3.92;;
75864;SDS011;64510;46.704;38.274;2023-05-07T05:38:45;5.80;;;2.67;;
75864;SDS011;64510;46.704;38.274;2023-05-07T05:41:12;3.22;;;2.90;;
75864;SDS011;64510;46.704;38.274;2023-05-07T05:43:38;6.78;;;3.25;;
75864;SDS011;64510;46.704;38.274;2023-05-07T05:46:04;6.55;;;3.25;;
75864;SDS011;64510;46.704;38.274;2023-05-07T05:48:30;8.27;;;3.83;;
75864;SDS011;64510;46.704;38.274;2023-05-07T05:50:59;5.70;;;3.50;;
75864;SDS011;64510;46.704;38.274;2023-05-07T05:53:25;4.95;;;3.35;;
75864;SDS011;64510;46.704;38.274;2023-05-07T05:55:51;9.75;;;3.55;;
75864;SDS011;64510;46.704;38.274;2023-05-07T05:58:17;4.60;;;3.65;;
75864;SDS011;64510;46.704;38.274;2023-05-07T06:00:50;4.68;;;4.25;;
75864;SDS011;64510;46.704;38.274;2023-05-07T06:03:19;4.60;;;3.45;;
75864;SDS011;64510;46.704;38.274;2023-05-07T06:05:45;5.50;;;3.47;;
75864;SDS011;64510;46.704;38.274;2023-05-07T06:08:11;6.03;;;4.93;;
75864;SDS011;64510;46.704;38.274;2023-05-07T06:10:37;4.50;;;3.30;;
75864;SDS011;64510;46.704;38.274;2023-05-07T06:13:06;6.10;;;4.22;;
75864;SDS011;64510;46.704;38.274;2023-05-07T06:15:33;12.60;;;5.00;;
75864;SDS011;64510;46.704;38.274;2023-05-07T06:18:04;4.90;;;3.42;;
75864;SDS011;64510;46.704;38.274;2023-05-07T06:20:30;7.47;;;3.97;;
75864;SDS011;64510;46.704;38.274;2023-05-07T06:22:58;4.63;;;3.53;;
75864;SDS011;64510;46.704;38.274;2023-05-07T06:25:24;4.13;;;3.67;;
75864;SDS011;64510;46.704;38.274;2023-05-07T06:27:50;7.50;;;5.13;;
75864;SDS011;64510;46.704;38.274;2023-05-07T06:30:16;5.80;;;3.47;;
75864;SDS011;64510;46.704;38.274;2023-05-07T06:32:42;7.03;;;4.43;;
75864;SDS011;64510;46.704;38.274;2023-05-07T06:35:10;10.50;;;5.78;;
75864;SDS011;64510;46.704;38.274;2023-05-07T06:37:38;10.25;;;6.03;;
75864;SDS011;64510;46.704;38.274;2023-05-07T06:40:06;7.75;;;4.38;;
75864;SDS011;64510;46.704;38.274;2023-05-07T06:42:35;11.05;;;4.85;;
75864;SDS011;64510;46.704;38.274;2023-05-07T06:45:20;6.85;;;4.43;;
75864;SDS011;64510;46.704;38.274;2023-05-07T06:47:46;9.20;;;4.40;;
75864;SDS011;64510;46.704;38.274;2023-05-07T06:50:13;6.95;;;4.07;;
75864;SDS011;64510;46.704;38.274;2023-05-07T06:52:42;8.48;;;3.92;;
75864;SDS011;64510;46.704;38.274;2023-05-07T06:55:09;6.38;;;4.32;;
75864;SDS011;64510;46.704;38.274;2023-05-07T06:57:36;10.35;;;4.07;;
75864;SDS011;64510;46.704;38.274;2023-05-07T07:00:03;4.72;;;4.05;;
75864;SDS011;64510;46.704;38.274;2023-05-07T07:02:36;15.30;;;5.22;;
75864;SDS011;64510;46.704;38.274;2023-05-07T07:05:02;12.48;;;4.15;;
75864;SDS011;64510;46.704;38.274;2023-05-07T07:07:28;8.68;;;4.57;;
75864;SDS011;64510;46.704;38.274;2023-05-07T07:09:55;7.55;;;4.22;;
75864;SDS011;64510;46.704;38.274;2023-05-07T07:12:21;8.70;;;4.88;;
75864;SDS011;64510;46.704;38.274;2023-05-07T07:14:49;5.35;;;4.35;;
75864;SDS011;64510;46.704;38.274;2023-05-07T07:17:15;5.78;;;4.68;;
75864;SDS011;64510;46.704;38.274;2023-05-07T07:19:41;4.20;;;3.78;;
75864;SDS011;64510;46.704;38.274;2023-05-07T07:22:08;5.40;;;3.22;;
75864;SDS011;64510;46.704;38.274;2023-05-07T07:24:34;6.05;;;4.40;;
75864;SDS011;64510;46.704;38.274;2023-05-07T07:27:03;6.63;;;4.70;;
75864;SDS011;64510;46.704;38.274;2023-05-07T07:29:32;6.47;;;3.33;;
75864;SDS011;64510;46.704;38.274;2023-05-07T07:31:58;5.25;;;4.18;;
75864;SDS011;64510;46.704;38.274;2023-05-07T07:34:25;4.97;;;3.75;;
75864;SDS011;64510;46.704;38.274;2023-05-07T07:36:51;12.38;;;4.45;;
75864;SDS011;64510;46.704;38.274;2023-05-07T07:39:18;4.20;;;3.25;;
75864;SDS011;64510;46.704;38.274;2023-05-07T07:41:46;7.95;;;4.25;;
75864;SDS011;64510;46.704;38.274;2023-05-07T07:44:13;4.95;;;3.75;;
75864;SDS011;64510;46.704;38.274;2023-05-07T07:46:40;8.80;;;5.78;;
75864;SDS011;64510;46.704;38.274;2023-05-07T07:49:06;6.10;;;4.72;;
75864;SDS011;64510;46.704;38.274;2023-05-07T07:51:33;6.38;;;3.75;;
75864;SDS011;64510;46.704;38.274;2023-05-07T07:54:00;6.88;;;4.18;;
75864;SDS011;64510;46.704;38.274;2023-05-07T07:56:28;8.77;;;4.65;;
75864;SDS011;64510;46.704;38.274;2023-05-07T07:58:54;5.55;;;3.45;;
75864;SDS011;64510;46.704;38.274;2023-05-07T08:01:20;5.53;;;2.83;;
75864;SDS011;64510;46.704;38.274;2023-05-07T08:03:46;9.32;;;5.22;;
75864;SDS011;64510;46.704;38.274;2023-05-07T08:06:13;7.88;;;4.35;;
75864;SDS011;64510;46.704;38.274;2023-05-07T08:08:39;7.50;;;5.28;;
75864;SDS011;64510;46.704;38.274;2023-05-07T08:11:05;5.57;;;3.90;;
75864;SDS011;64510;46.704;38.274;2023-05-07T08:13:34;6.05;;;3.67;;
75864;SDS011;64510;46.704;38.274;2023-05-07T08:16:01;3.67;;;3.30;;
75864;SDS011;64510;46.704;38.274;2023-05-07T08:18:28;4.35;;;3.55;;
75864;SDS011;64510;46.704;38.274;2023-05-07T08:20:56;5.25;;;3.75;;
75864;SDS011;64510;46.704;38.274;2023-05-07T08:23:25;6.07;;;3.88;;
75864;SDS011;64510;46.704;38.274;2023-05-07T08:25:52;6.50;;;3.95;;
75864;SDS011;64510;46.704;38.274;2023-05-07T08:28:19;5.47;;;3.40;;
75864;SDS011;64510;46.704;38.274;2023-05-07T08:30:47;9.45;;;2.92;;
75864;SDS011;64510;46.704;38.274;2023-05-07T08:33:13;14.90;;;5.10;;
75864;SDS011;64510;46.704;38.274;2023-05-07T08:35:39;5.18;;;4.30;;
75864;SDS011;64510;46.704;38.274;2023-05-07T08:38:06;9.70;;;4.07;;
75864;SDS011;64510;46.704;38.274;2023-05-07T08:40:37;5.18;;;3.65;;
75864;SDS011;64510;46.704;38.274;2023-05-07T08:43:11;5.75;;;4.05;;
75864;SDS011;64510;46.704;38.274;2023-05-07T08:45:39;6.85;;;3.58;;
75864;SDS011;64510;46.704;38.274;2023-05-07T08:48:15;6.13;;;3.92;;
75864;SDS011;64510;46.704;38.274;2023-05-07T08:50:44;5.35;;;3.83;;
75864;SDS011;64510;46.704;38.274;2023-05-07T08:53:11;6.18;;;3.45;;
75864;SDS011;64510;46.704;38.274;2023-05-07T08:55:38;6.05;;;3.47;;
75864;SDS011;64510;46.704;38.274;2023-05-07T08:58:05;4.90;;;4.10;;
75864;SDS011;64510;46.704;38.274;2023-05-07T09:00:32;3.33;;;3.03;;
75864;SDS011;64510;46.704;38.274;2023-05-07T09:03:00;3.83;;;2.90;;
75864;SDS011;64510;46.704;38.274;2023-05-07T09:05:27;18.55;;;3.45;;
75864;SDS011;64510;46.704;38.274;2023-05-07T09:07:53;4.07;;;3.60;;
75864;SDS011;64510;46.704;38.274;2023-05-07T09:10:22;3.85;;;2.60;;
75864;SDS011;64510;46.704;38.274;2023-05-07T09:12:48;3.60;;;3.10;;
75864;SDS011;64510;46.704;38.274;2023-05-07T09:15:15;2.95;;;2.55;;
75864;SDS011;64510;46.704;38.274;2023-05-07T09:17:42;7.22;;;4.25;;
75864;SDS011;64510;46.704;38.274;2023-05-07T09:20:09;6.20;;;3.53;;
75864;SDS011;64510;46.704;38.274;2023-05-07T09:22:36;4.65;;;2.90;;
75864;SDS011;64510;46.704;38.274;2023-05-07T09:25:06;4.97;;;3.83;;
75864;SDS011;64510;46.704;38.274;2023-05-07T09:27:35;5.40;;;3.30;;
75864;SDS011;64510;46.704;38.274;2023-05-07T09:30:05;4.28;;;3.75;;
75864;SDS011;64510;46.704;38.274;2023-05-07T09:32:34;3.13;;;2.88;;
75864;SDS011;64510;46.704;38.274;2023-05-07T09:35:04;7.45;;;2.97;;
75864;SDS011;64510;46.704;38.274;2023-05-07T09:37:31;4.63;;;3.08;;
75864;SDS011;64510;46.704;38.274;2023-05-07T09:39:58;3.58;;;3.13;;
75864;SDS011;64510;46.704;38.274;2023-05-07T09:42:26;6.13;;;3.50;;
75864;SDS011;64510;46.704;38.274;2023-05-07T09:44:55;3.20;;;2.90;;
75864;SDS011;64510;46.704;38.274;2023-05-07T09:47:24;3.92;;;3.35;;
75864;SDS011;64510;46.704;38.274;2023-05-07T09:49:56;6.22;;;4.00;;
75864;SDS011;64510;46.704;38.274;2023-05-07T09:52:25;6.47;;;3.38;;
75864;SDS011;64510;46.704;38.274;2023-05-07T09:55:00;6.90;;;3.58;;
75864;SDS011;64510;46.704;38.274;2023-05-07T09:57:28;5.13;;;2.83;;
75864;SDS011;64510;46.704;38.274;2023-05-07T09:59:59;5.85;;;4.40;;
75864;SDS011;64510;46.704;38.274;2023-05-07T10:02:35;6.68;;;3.45;;
75864;SDS011;64510;46.704;38.274;2023-05-07T10:05:03;4.88;;;3.40;;
75864;SDS011;64510;46.704;38.274;2023-05-07T10:07:31;5.28;;;3.03;;
75864;SDS011;64510;46.704;38.274;2023-05-07T10:10:04;4.80;;;3.53;;
75864;SDS011;64510;46.704;38.274;2023-05-07T10:12:36;5.63;;;3.70;;
75864;SDS011;64510;46.704;38.274;2023-05-07T10:15:09;5.25;;;3.53;;
75864;SDS011;64510;46.704;38.274;2023-05-07T10:17:37;4.38;;;3.63;;
75864;SDS011;64510;46.704;38.274;2023-05-07T10:20:04;8.13;;;3.20;;
75864;SDS011;64510;46.704;38.274;2023-05-07T10:22:32;5.00;;;3.55;;
75864;SDS011;64510;46.704;38.274;2023-05-07T10:25:12;5.80;;;3.67;;
75864;SDS011;64510;46.704;38.274;2023-05-07T10:27:42;4.53;;;3.08;;
75864;SDS011;64510;46.704;38.274;2023-05-07T10:30:16;5.13;;;3.70;;
75864;SDS011;64510;46.704;38.274;2023-05-07T10:33:08;6.47;;;4.28;;
75864;SDS011;64510;46.704;38.274;2023-05-07T10:38:07;5.30;;;4.03;;
75864;SDS011;64510;46.704;38.274;2023-05-07T10:40:36;5.78;;;3.30;;
75864;SDS011;64510;46.704;38.274;2023-05-07T10:43:03;8.82;;;4.28;;
75864;SDS011;64510;46.704;38.274;2023-05-07T10:45:37;4.53;;;3.00;;
75864;SDS011;64510;46.704;38.274;2023-05-07T10:50:42;6.47;;;3.35;;
75864;SDS011;64510;46.704;38.274;2023-05-07T10:58:48;5.60;;;4.22;;
75864;SDS011;64510;46.704;38.274;2023-05-07T11:04:25;8.18;;;4.60;;
75864;SDS011;64510;46.704;38.274;2023-05-07T11:07:23;5.97;;;4.50;;
75864;SDS011;64510;46.704;38.274;2023-05-07T11:18:06;9.52;;;4.57;;
75864;SDS011;64510;46.704;38.274;2023-05-07T11:20:58;6.70;;;5.05;;
75864;SDS011;64510;46.704;38.274;2023-05-07T11:26:21;10.00;;;4.88;;
75864;SDS011;64510;46.704;38.274;2023-05-07T11:28:48;11.07;;;5.47;;
75864;SDS011;64510;46.704;38.274;2023-05-07T11:31:14;6.55;;;4.78;;
75864;SDS011;64510;46.704;38.274;2023-05-07T11:33:47;9.13;;;5.90;;
75864;SDS011;64510;46.704;38.274;2023-05-07T11:36:16;9.95;;;5.78;;
75864;SDS011;64510;46.704;38.274;2023-05-07T11:41:12;13.70;;;6.72;;
75864;SDS011;64510;46.704;38.274;2023-05-07T11:43:52;8.75;;;6.60;;
75864;SDS011;64510;46.704;38.274;2023-05-07T11:46:20;9.18;;;5.95;;
75864;SDS011;64510;46.704;38.274;2023-05-07T11:48:46;9.30;;;6.50;;
75864;SDS011;64510;46.704;38.274;2023-05-07T11:51:12;7.00;;;4.63;;
75864;SDS011;64510;46.704;38.274;2023-05-07T11:53:42;8.50;;;5.97;;
75864;SDS011;64510;46.704;38.274;2023-05-07T11:56:12;11.73;;;5.40;;
75864;SDS011;64510;46.704;38.274;2023-05-07T11:58:41;10.23;;;4.70;;
75864;SDS011;64510;46.704;38.274;2023-05-07T12:01:08;5.75;;;4.88;;
75864;SDS011;64510;46.704;38.274;2023-05-07T12:03:35;8.77;;;5.53;;
75864;SDS011;64510;46.704;38.274;2023-05-07T12:06:02;6.28;;;4.45;;
75864;SDS011;64510;46.704;38.274;2023-05-07T12:08:31;8.00;;;5.03;;
75864;SDS011;64510;46.704;38.274;2023-05-07T12:10:58;9.80;;;5.55;;
75864;SDS011;64510;46.704;38.274;2023-05-07T12:13:24;14.80;;;6.57;;
75864;SDS011;64510;46.704;38.274;2023-05-07T12:15:51;10.75;;;5.75;;
75864;SDS011;64510;46.704;38.274;2023-05-07T12:18:18;8.82;;;6.03;;
75864;SDS011;64510;46.704;38.274;2023-05-07T12:20:45;18.40;;;6.57;;
75864;SDS011;64510;46.704;38.274;2023-05-07T12:23:12;10.38;;;6.88;;
75864;SDS011;64510;46.704;38.274;2023-05-07T12:25:39;11.40;;;6.80;;
75864;SDS011;64510;46.704;38.274;2023-05-07T12:28:14;9.30;;;6.18;;
75864;SDS011;64510;46.704;38.274;2023-05-07T12:30:42;8.50;;;5.93;;
75864;SDS011;64510;46.704;38.274;2023-05-07T12:33:09;11.25;;;7.22;;
75864;SDS011;64510;46.704;38.274;2023-05-07T12:35:40;7.78;;;5.78;;
75864;SDS011;64510;46.704;38.274;2023-05-07T12:38:07;9.65;;;4.57;;
75864;SDS011;64510;46.704;38.274;2023-05-07T12:40:38;8.27;;;5.78;;
75864;SDS011;64510;46.704;38.274;2023-05-07T12:43:05;9.35;;;6.40;;
75864;SDS011;64510;46.704;38.274;2023-05-07T12:45:31;12.88;;;7.15;;
75864;SDS011;64510;46.704;38.274;2023-05-07T12:48:04;7.25;;;5.90;;
75864;SDS011;64510;46.704;38.274;2023-05-07T12:50:33;12.88;;;6.78;;
75864;SDS011;64510;46.704;38.274;2023-05-07T12:52:59;10.77;;;6.63;;
75864;SDS011;64510;46.704;38.274;2023-05-07T12:55:25;11.20;;;5.95;;
75864;SDS011;64510;46.704;38.274;2023-05-07T12:57:51;8.77;;;6.93;;
75864;SDS011;64510;46.704;38.274;2023-05-07T13:00:37;12.23;;;5.80;;
75864;SDS011;64510;46.704;38.274;2023-05-07T13:03:04;12.95;;;6.53;;
75864;SDS011;64510;46.704;38.274;2023-05-07T13:05:31;12.57;;;6.05;;
75864;SDS011;64510;46.704;38.274;2023-05-07T13:07:58;9.00;;;5.55;;
75864;SDS011;64510;46.704;38.274;2023-05-07T13:10:24;11.48;;;5.20;;
75864;SDS011;64510;46.704;38.274;2023-05-07T13:12:50;9.82;;;6.13;;
75864;SDS011;64510;46.704;38.274;2023-05-07T13:15:17;12.07;;;7.70;;
75864;SDS011;64510;46.704;38.274;2023-05-07T13:17:43;8.70;;;6.75;;
75864;SDS011;64510;46.704;38.274;2023-05-07T13:20:09;8.30;;;5.03;;
75864;SDS011;64510;46.704;38.274;2023-05-07T13:22:36;10.05;;;7.18;;
75864;SDS011;64510;46.704;38.274;2023-05-07T13:25:02;5.80;;;5.20;;
75864;SDS011;64510;46.704;38.274;2023-05-07T13:27:29;10.25;;;7.28;;
75864;SDS011;64510;46.704;38.274;2023-05-07T13:29:56;10.05;;;6.03;;
75864;SDS011;64510;46.704;38.274;2023-05-07T13:32:22;9.27;;;5.78;;
75864;SDS011;64510;46.704;38.274;2023-05-07T13:34:48;9.10;;;5.85;;
75864;SDS011;64510;46.704;38.274;2023-05-07T13:37:14;6.97;;;5.35;;
75864;SDS011;64510;46.704;38.274;2023-05-07T13:39:40;10.27;;;6.07;;
75864;SDS011;64510;46.704;38.274;2023-05-07T13:42:09;14.57;;;7.68;;
75864;SDS011;64510;46.704;38.274;2023-05-07T13:44:35;12.48;;;8.02;;
75864;SDS011;64510;46.704;38.274;2023-05-07T13:47:01;12.60;;;6.25;;
75864;SDS011;64510;46.704;38.274;2023-05-07T13:49:27;9.30;;;6.00;;
75864;SDS011;64510;46.704;38.274;2023-05-07T13:51:53;9.18;;;6.05;;
75864;SDS011;64510;46.704;38.274;2023-05-07T13:54:19;9.82;;;7.57;;
75864;SDS011;64510;46.704;38.274;2023-05-07T13:56:45;9.18;;;8.18;;
75864;SDS011;64510;46.704;38.274;2023-05-07T13:59:11;9.13;;;6.55;;
75864;SDS011;64510;46.704;38.274;2023-05-07T14:01:39;9.20;;;6.30;;
75864;SDS011;64510;46.704;38.274;2023-05-07T14:04:05;7.55;;;5.55;;
75864;SDS011;64510;46.704;38.274;2023-05-07T14:06:31;6.47;;;4.80;;
75864;SDS011;64510;46.704;38.274;2023-05-07T14:08:57;7.35;;;5.28;;
75864;SDS011;64510;46.704;38.274;2023-05-07T14:11:23;9.65;;;5.90;;
75864;SDS011;64510;46.704;38.274;2023-05-07T14:13:49;11.23;;;6.38;;
75864;SDS011;64510;46.704;38.274;2023-05-07T14:16:15;8.82;;;6.40;;
75864;SDS011;64510;46.704;38.274;2023-05-07T14:18:41;8.40;;;5.82;;
75864;SDS011;64510;46.704;38.274;2023-05-07T14:21:07;10.63;;;8.15;;
75864;SDS011;64510;46.704;38.274;2023-05-07T14:23:34;7.15;;;5.68;;
75864;SDS011;64510;46.704;38.274;2023-05-07T14:26:01;11.80;;;8.50;;
75864;SDS011;64510;46.704;38.274;2023-05-07T14:28:27;8.50;;;5.97;;
75864;SDS011;64510;46.704;38.274;2023-05-07T14:30:53;7.68;;;6.13;;
75864;SDS011;64510;46.704;38.274;2023-05-07T14:33:18;10.23;;;7.63;;
75864;SDS011;64510;46.704;38.274;2023-05-07T14:35:44;8.10;;;6.57;;
75864;SDS011;64510;46.704;38.274;2023-05-07T14:38:14;7.05;;;6.25;;
75864;SDS011;64510;46.704;38.274;2023-05-07T14:40:40;11.60;;;5.07;;
75864;SDS011;64510;46.704;38.274;2023-05-07T14:43:06;9.10;;;7.10;;
75864;SDS011;64510;46.704;38.274;2023-05-07T14:45:32;7.10;;;5.47;;
75864;SDS011;64510;46.704;38.274;2023-05-07T14:47:58;7.57;;;6.38;;
75864;SDS011;64510;46.704;38.274;2023-05-07T14:50:24;8.75;;;6.03;;
75864;SDS011;64510;46.704;38.274;2023-05-07T14:52:50;7.80;;;6.30;;
75864;SDS011;64510;46.704;38.274;2023-05-07T14:55:16;7.35;;;6.40;;
75864;SDS011;64510;46.704;38.274;2023-05-07T14:57:42;10.70;;;6.70;;
75864;SDS011;64510;46.704;38.274;2023-05-07T15:00:08;8.68;;;6.40;;
75864;SDS011;64510;46.704;38.274;2023-05-07T15:02:35;8.25;;;5.93;;